sensor_id;sensor_type;location;lat;lon;timestamp;pressure;altitude;pressure_sealevel;temperature;humidity
33454;BME280;39400;49.744;7.012;2023-02-26T00:00:19;95564.63;;;-2.71;100.00
33454;BME280;39400;49.744;7.012;2023-02-26T00:02:45;95564.47;;;-2.75;100.00
33454;BME280;39400;49.744;7.012;2023-02-26T00:05:11;95568.44;;;-2.72;100.00
33454;BME280;39400;49.744;7.012;2023-02-26T00:07:38;95562.75;;;-2.79;100.00
33454;BME280;39400;49.744;7.012;2023-02-26T00:10:06;95565.28;;;-2.74;100.00
33454;BME280;39400;49.744;7.012;2023-02-26T00:12:31;95567.66;;;-2.73;100.00
33454;BME280;39400;49.744;7.012;2023-02-26T00:14:57;95570.34;;;-2.81;100.00
33454;BME280;39400;49.744;7.012;2023-02-26T00:17:44;95578.56;;;-2.78;100.00
33454;BME280;39400;49.744;7.012;2023-02-26T00:20:13;95569.72;;;-2.78;100.00
33454;BME280;39400;49.744;7.012;2023-02-26T00:22:39;95569.41;;;-2.85;100.00
33454;BME280;39400;49.744;7.012;2023-02-26T00:25:04;95575.41;;;-2.89;100.00
33454;BME280;39400;49.744;7.012;2023-02-26T00:27:30;95570.34;;;-2.99;100.00
33454;BME280;39400;49.744;7.012;2023-02-26T00:29:55;95577.63;;;-2.91;100.00
33454;BME280;39400;49.744;7.012;2023-02-26T00:32:21;95575.41;;;-2.89;100.00
33454;BME280;39400;49.744;7.012;2023-02-26T00:34:47;95575.56;;;-2.85;100.00
33454;BME280;39400;49.744;7.012;2023-02-26T00:37:30;95574.78;;;-2.85;100.00
33454;BME280;39400;49.744;7.012;2023-02-26T00:40:10;95581.09;;;-2.99;100.00
33454;BME280;39400;49.744;7.012;2023-02-26T00:42:38;95573.53;;;-2.97;100.00
33454;BME280;39400;49.744;7.012;2023-02-26T00:45:04;95573.69;;;-2.93;100.00
33454;BME280;39400;49.744;7.012;2023-02-26T00:50:24;95576.22;;;-2.97;100.00
33454;BME280;39400;49.744;7.012;2023-02-26T00:53:21;95579.22;;;-2.90;100.00
33454;BME280;39400;49.744;7.012;2023-02-26T00:55:49;95588.09;;;-2.98;100.00
33454;BME280;39400;49.744;7.012;2023-02-26T00:58:14;95590.91;;;-3.03;100.00
33454;BME280;39400;49.744;7.012;2023-02-26T01:00:39;95593.63;;;-2.94;100.00
33454;BME280;39400;49.744;7.012;2023-02-26T01:03:05;95597.56;;;-2.92;100.00
33454;BME280;39400;49.744;7.012;2023-02-26T01:05:31;95590.28;;;-2.82;100.00
33454;BME280;39400;49.744;7.012;2023-02-26T01:11:04;95593.13;;;-2.53;100.00
33454;BME280;39400;49.744;7.012;2023-02-26T01:13:29;95590.75;;;-2.46;100.00
33454;BME280;39400;49.744;7.012;2023-02-26T01:16:04;95597.53;;;-2.40;100.00
33454;BME280;39400;49.744;7.012;2023-02-26T01:18:43;95589.97;;;-2.55;100.00
33454;BME280;39400;49.744;7.012;2023-02-26T01:21:15;95598.31;;;-2.39;100.00
33454;BME280;39400;49.744;7.012;2023-02-26T01:23:46;95590.75;;;-2.54;100.00
33454;BME280;39400;49.744;7.012;2023-02-26T01:26:18;95596.56;;;-2.26;100.00
33454;BME280;39400;49.744;7.012;2023-02-26T01:28:46;95589.75;;;-2.24;100.00
33454;BME280;39400;49.744;7.012;2023-02-26T01:34:33;95593.66;;;-2.04;100.00
33454;BME280;39400;49.744;7.012;2023-02-26T01:37:26;95590.50;;;-2.06;100.00
33454;BME280;39400;49.744;7.012;2023-02-26T01:42:30;95604.59;;;-2.00;100.00
33454;BME280;39400;49.744;7.012;2023-02-26T01:45:11;95603.75;;;-1.83;100.00
33454;BME280;39400;49.744;7.012;2023-02-26T01:48:02;95603.00;;;-1.63;100.00
33454;BME280;39400;49.744;7.012;2023-02-26T01:50:31;95603.19;;;-1.68;100.00
33454;BME280;39400;49.744;7.012;2023-02-26T01:53:18;95601.72;;;-1.57;100.00
33454;BME280;39400;49.744;7.012;2023-02-26T01:55:45;95605.78;;;-1.80;100.00
33454;BME280;39400;49.744;7.012;2023-02-26T01:58:12;95611.63;;;-1.78;100.00
33454;BME280;39400;49.744;7.012;2023-02-26T02:00:38;95605.41;;;-1.61;100.00
33454;BME280;39400;49.744;7.012;2023-02-26T02:03:03;95599.63;;;-1.51;100.00
33454;BME280;39400;49.744;7.012;2023-02-26T02:06:06;95605.44;;;-1.40;100.00
33454;BME280;39400;49.744;7.012;2023-02-26T02:08:33;95599.91;;;-1.44;100.00
33454;BME280;39400;49.744;7.012;2023-02-26T02:11:02;95600.88;;;-1.78;100.00
33454;BME280;39400;49.744;7.012;2023-02-26T02:16:15;95591.72;;;-1.56;100.00
33454;BME280;39400;49.744;7.012;2023-02-26T02:23:59;95587.44;;;-1.57;100.00
33454;BME280;39400;49.744;7.012;2023-02-26T02:26:43;95585.91;;;-1.67;100.00
33454;BME280;39400;49.744;7.012;2023-02-26T02:29:31;95596.41;;;-1.74;100.00
33454;BME280;39400;49.744;7.012;2023-02-26T02:32:09;95602.63;;;-1.82;100.00
33454;BME280;39400;49.744;7.012;2023-02-26T02:34:45;95589.09;;;-1.65;100.00
33454;BME280;39400;49.744;7.012;2023-02-26T02:37:36;95600.22;;;-1.75;100.00
33454;BME280;39400;49.744;7.012;2023-02-26T02:40:08;95593.47;;;-1.90;100.00
33454;BME280;39400;49.744;7.012;2023-02-26T02:42:44;95596.47;;;-1.92;100.00
33454;BME280;39400;49.744;7.012;2023-02-26T02:45:24;95608.34;;;-1.93;100.00
33454;BME280;39400;49.744;7.012;2023-02-26T02:47:56;95601.22;;;-1.88;100.00
33454;BME280;39400;49.744;7.012;2023-02-26T02:50:31;95611.06;;;-1.93;100.00
33454;BME280;39400;49.744;7.012;2023-02-26T02:53:07;95596.81;;;-2.02;100.00
33454;BME280;39400;49.744;7.012;2023-02-26T02:55:43;95601.31;;;-2.14;100.00
33454;BME280;39400;49.744;7.012;2023-02-26T02:58:15;95611.09;;;-2.19;100.00
33454;BME280;39400;49.744;7.012;2023-02-26T03:00:47;95607.63;;;-2.19;100.00
33454;BME280;39400;49.744;7.012;2023-02-26T03:05:42;95615.75;;;-2.28;100.00
33454;BME280;39400;49.744;7.012;2023-02-26T03:08:11;95613.66;;;-2.22;100.00
33454;BME280;39400;49.744;7.012;2023-02-26T03:10:37;95610.03;;;-2.26;100.00
33454;BME280;39400;49.744;7.012;2023-02-26T03:13:04;95605.75;;;-2.27;100.00
33454;BME280;39400;49.744;7.012;2023-02-26T03:15:36;95616.53;;;-2.27;100.00
33454;BME280;39400;49.744;7.012;2023-02-26T03:23:54;95614.31;;;-2.43;100.00
33454;BME280;39400;49.744;7.012;2023-02-26T03:26:30;95615.91;;;-2.42;100.00
33454;BME280;39400;49.744;7.012;2023-02-26T03:29:04;95617.50;;;-2.41;100.00
33454;BME280;39400;49.744;7.012;2023-02-26T03:31:55;95609.44;;;-2.49;100.00
33454;BME280;39400;49.744;7.012;2023-02-26T03:34:26;95609.28;;;-2.53;100.00
33454;BME280;39400;49.744;7.012;2023-02-26T03:37:06;95614.66;;;-2.53;100.00
33454;BME280;39400;49.744;7.012;2023-02-26T03:39:37;95608.94;;;-2.60;100.00
33454;BME280;39400;49.744;7.012;2023-02-26T03:42:23;95611.34;;;-2.58;100.00
33454;BME280;39400;49.744;7.012;2023-02-26T03:45:13;95615.63;;;-2.66;100.00
33454;BME280;39400;49.744;7.012;2023-02-26T03:47:42;95614.50;;;-2.82;100.00
33454;BME280;39400;49.744;7.012;2023-02-26T03:50:40;95616.53;;;-2.88;100.00
33454;BME280;39400;49.744;7.012;2023-02-26T03:53:49;95620.69;;;-2.91;100.00
33454;BME280;39400;49.744;7.012;2023-02-26T03:56:31;95636.50;;;-2.98;100.00
33454;BME280;39400;49.744;7.012;2023-02-26T03:59:30;95635.34;;;-3.05;100.00
33454;BME280;39400;49.744;7.012;2023-02-26T04:02:27;95635.50;;;-3.02;100.00
33454;BME280;39400;49.744;7.012;2023-02-26T04:05:16;95640.13;;;-2.94;100.00
33454;BME280;39400;49.744;7.012;2023-02-26T04:07:44;95647.72;;;-2.96;100.00
33454;BME280;39400;49.744;7.012;2023-02-26T04:10:13;95647.56;;;-2.91;100.00
33454;BME280;39400;49.744;7.012;2023-02-26T04:12:41;95641.53;;;-2.88;100.00
33454;BME280;39400;49.744;7.012;2023-02-26T04:15:08;95656.09;;;-2.89;100.00
33454;BME280;39400;49.744;7.012;2023-02-26T04:17:33;95659.59;;;-2.79;100.00
33454;BME280;39400;49.744;7.012;2023-02-26T04:20:00;95668.09;;;-2.95;100.00
33454;BME280;39400;49.744;7.012;2023-02-26T04:22:25;95672.06;;;-3.01;100.00
33454;BME280;39400;49.744;7.012;2023-02-26T04:24:51;95667.03;;;-2.94;100.00
33454;BME280;39400;49.744;7.012;2023-02-26T04:27:17;95668.78;;;-2.80;100.00
33454;BME280;39400;49.744;7.012;2023-02-26T04:29:42;95674.94;;;-2.71;100.00
33454;BME280;39400;49.744;7.012;2023-02-26T04:32:07;95672.88;;;-2.74;100.00
33454;BME280;39400;49.744;7.012;2023-02-26T04:34:33;95676.38;;;-2.65;100.00
33454;BME280;39400;49.744;7.012;2023-02-26T04:36:58;95670.19;;;-2.83;100.00
33454;BME280;39400;49.744;7.012;2023-02-26T04:39:24;95674.78;;;-2.83;100.00
33454;BME280;39400;49.744;7.012;2023-02-26T04:41:49;95678.38;;;-3.05;100.00
33454;BME280;39400;49.744;7.012;2023-02-26T04:44:15;95675.06;;;-3.11;100.00
33454;BME280;39400;49.744;7.012;2023-02-26T04:46:40;95690.06;;;-3.10;100.00
33454;BME280;39400;49.744;7.012;2023-02-26T04:49:06;95674.09;;;-3.15;100.00
33454;BME280;39400;49.744;7.012;2023-02-26T04:51:31;95687.84;;;-3.25;100.00
33454;BME280;39400;49.744;7.012;2023-02-26T04:53:57;95691.47;;;-3.21;100.00
33454;BME280;39400;49.744;7.012;2023-02-26T04:56:22;95690.69;;;-3.22;100.00
33454;BME280;39400;49.744;7.012;2023-02-26T04:58:48;95687.34;;;-3.27;100.00
33454;BME280;39400;49.744;7.012;2023-02-26T05:01:18;95690.03;;;-3.27;100.00
33454;BME280;39400;49.744;7.012;2023-02-26T05:03:43;95684.16;;;-3.29;100.00
33454;BME280;39400;49.744;7.012;2023-02-26T05:06:09;95687.00;;;-3.35;100.00
33454;BME280;39400;49.744;7.012;2023-02-26T05:08:35;95682.25;;;-3.38;100.00
33454;BME280;39400;49.744;7.012;2023-02-26T05:11:00;95683.81;;;-3.37;100.00
33454;BME280;39400;49.744;7.012;2023-02-26T05:13:26;95692.19;;;-3.38;100.00
33454;BME280;39400;49.744;7.012;2023-02-26T05:15:52;95703.13;;;-3.35;100.00
33454;BME280;39400;49.744;7.012;2023-02-26T05:18:18;95717.97;;;-3.37;100.00
33454;BME280;39400;49.744;7.012;2023-02-26T05:20:45;95710.88;;;-3.33;100.00
33454;BME280;39400;49.744;7.012;2023-02-26T05:23:15;95719.09;;;-3.38;100.00
33454;BME280;39400;49.744;7.012;2023-02-26T05:25:40;95716.25;;;-3.33;100.00
33454;BME280;39400;49.744;7.012;2023-02-26T05:28:06;95714.75;;;-3.48;100.00
33454;BME280;39400;49.744;7.012;2023-02-26T05:30:31;95723.31;;;-3.46;100.00
33454;BME280;39400;49.744;7.012;2023-02-26T05:32:56;95725.97;;;-3.54;100.00
33454;BME280;39400;49.744;7.012;2023-02-26T05:35:22;95731.75;;;-3.61;100.00
33454;BME280;39400;49.744;7.012;2023-02-26T05:37:47;95714.94;;;-3.75;100.00
33454;BME280;39400;49.744;7.012;2023-02-26T05:40:13;95730.63;;;-3.69;100.00
33454;BME280;39400;49.744;7.012;2023-02-26T05:42:38;95736.25;;;-3.79;100.00
33454;BME280;39400;49.744;7.012;2023-02-26T05:45:04;95741.25;;;-3.86;100.00
33454;BME280;39400;49.744;7.012;2023-02-26T05:47:32;95741.59;;;-3.88;100.00
33454;BME280;39400;49.744;7.012;2023-02-26T05:49:58;95759.75;;;-3.85;100.00
33454;BME280;39400;49.744;7.012;2023-02-26T05:52:23;95764.16;;;-3.89;100.00
33454;BME280;39400;49.744;7.012;2023-02-26T05:54:48;95761.34;;;-3.84;100.00
33454;BME280;39400;49.744;7.012;2023-02-26T05:57:14;95764.69;;;-3.78;100.00
33454;BME280;39400;49.744;7.012;2023-02-26T05:59:39;95757.56;;;-3.83;100.00
33454;BME280;39400;49.744;7.012;2023-02-26T06:02:04;95762.94;;;-3.83;100.00
33454;BME280;39400;49.744;7.012;2023-02-26T06:04:30;95767.81;;;-3.85;100.00
33454;BME280;39400;49.744;7.012;2023-02-26T06:06:55;95768.31;;;-3.83;100.00
33454;BME280;39400;49.744;7.012;2023-02-26T06:09:20;95777.94;;;-3.82;100.00
33454;BME280;39400;49.744;7.012;2023-02-26T06:11:46;95771.97;;;-3.78;100.00
33454;BME280;39400;49.744;7.012;2023-02-26T06:14:11;95783.56;;;-3.69;100.00
33454;BME280;39400;49.744;7.012;2023-02-26T06:16:36;95787.34;;;-3.70;100.00
33454;BME280;39400;49.744;7.012;2023-02-26T06:19:02;95800.66;;;-3.65;100.00
33454;BME280;39400;49.744;7.012;2023-02-26T06:21:27;95797.41;;;-3.53;100.00
33454;BME280;39400;49.744;7.012;2023-02-26T06:23:53;95796.97;;;-3.47;100.00
33454;BME280;39400;49.744;7.012;2023-02-26T06:26:18;95799.53;;;-3.42;100.00
33454;BME280;39400;49.744;7.012;2023-02-26T06:28:43;95806.94;;;-3.47;100.00
33454;BME280;39400;49.744;7.012;2023-02-26T06:31:09;95808.41;;;-3.41;100.00
33454;BME280;39400;49.744;7.012;2023-02-26T06:33:35;95811.00;;;-3.27;100.00
33454;BME280;39400;49.744;7.012;2023-02-26T06:36:00;95810.94;;;-3.36;100.00
33454;BME280;39400;49.744;7.012;2023-02-26T06:38:27;95814.31;;;-3.30;100.00
33454;BME280;39400;49.744;7.012;2023-02-26T06:40:52;95824.59;;;-3.32;100.00
33454;BME280;39400;49.744;7.012;2023-02-26T06:43:18;95818.88;;;-3.31;100.00
33454;BME280;39400;49.744;7.012;2023-02-26T06:45:43;95817.59;;;-3.33;100.00
33454;BME280;39400;49.744;7.012;2023-02-26T06:48:08;95824.44;;;-3.27;100.00
33454;BME280;39400;49.744;7.012;2023-02-26T06:50:34;95831.72;;;-3.28;100.00
33454;BME280;39400;49.744;7.012;2023-02-26T06:52:59;95826.16;;;-3.31;100.00
33454;BME280;39400;49.744;7.012;2023-02-26T06:55:25;95829.13;;;-3.33;100.00
33454;BME280;39400;49.744;7.012;2023-02-26T06:57:50;95827.06;;;-3.36;100.00
33454;BME280;39400;49.744;7.012;2023-02-26T07:00:16;95831.53;;;-3.31;100.00
33454;BME280;39400;49.744;7.012;2023-02-26T07:02:41;95836.56;;;-3.39;100.00
33454;BME280;39400;49.744;7.012;2023-02-26T07:05:07;95837.97;;;-3.41;100.00
33454;BME280;39400;49.744;7.012;2023-02-26T07:07:32;95820.97;;;-3.50;100.00
33454;BME280;39400;49.744;7.012;2023-02-26T07:09:58;95824.44;;;-3.50;100.00
33454;BME280;39400;49.744;7.012;2023-02-26T07:12:23;95822.66;;;-3.63;100.00
33454;BME280;39400;49.744;7.012;2023-02-26T07:14:48;95820.91;;;-3.82;100.00
33454;BME280;39400;49.744;7.012;2023-02-26T07:17:32;95831.19;;;-3.84;100.00
33454;BME280;39400;49.744;7.012;2023-02-26T07:19:58;95836.44;;;-3.78;100.00
33454;BME280;39400;49.744;7.012;2023-02-26T07:22:23;95826.19;;;-3.76;100.00
33454;BME280;39400;49.744;7.012;2023-02-26T07:24:48;95845.09;;;-3.82;100.00
33454;BME280;39400;49.744;7.012;2023-02-26T07:27:14;95844.00;;;-3.80;100.00
33454;BME280;39400;49.744;7.012;2023-02-26T07:29:39;95846.69;;;-3.80;100.00
33454;BME280;39400;49.744;7.012;2023-02-26T07:32:05;95860.22;;;-3.86;100.00
33454;BME280;39400;49.744;7.012;2023-02-26T07:34:31;95858.47;;;-3.90;100.00
33454;BME280;39400;49.744;7.012;2023-02-26T07:36:56;95861.44;;;-3.92;100.00
33454;BME280;39400;49.744;7.012;2023-02-26T07:39:21;95870.97;;;-3.86;100.00
33454;BME280;39400;49.744;7.012;2023-02-26T07:41:47;95883.69;;;-3.77;100.00
33454;BME280;39400;49.744;7.012;2023-02-26T07:44:13;95889.06;;;-3.55;100.00
33454;BME280;39400;49.744;7.012;2023-02-26T07:46:39;95882.16;;;-3.47;100.00
33454;BME280;39400;49.744;7.012;2023-02-26T07:49:04;95887.25;;;-3.23;100.00
33454;BME280;39400;49.744;7.012;2023-02-26T07:51:30;95896.16;;;-3.14;100.00
33454;BME280;39400;49.744;7.012;2023-02-26T07:53:55;95890.19;;;-3.11;100.00
33454;BME280;39400;49.744;7.012;2023-02-26T07:56:20;95896.16;;;-3.14;100.00
33454;BME280;39400;49.744;7.012;2023-02-26T07:58:46;95881.69;;;-3.27;100.00
33454;BME280;39400;49.744;7.012;2023-02-26T08:01:11;95876.91;;;-3.30;100.00
33454;BME280;39400;49.744;7.012;2023-02-26T08:03:36;95884.44;;;-3.41;100.00
33454;BME280;39400;49.744;7.012;2023-02-26T08:06:02;95899.91;;;-3.46;100.00
33454;BME280;39400;49.744;7.012;2023-02-26T08:08:28;95899.63;;;-3.36;100.00
33454;BME280;39400;49.744;7.012;2023-02-26T08:10:53;95904.47;;;-3.47;100.00
33454;BME280;39400;49.744;7.012;2023-02-26T08:13:18;95910.97;;;-3.25;100.00
33454;BME280;39400;49.744;7.012;2023-02-26T08:15:44;95912.78;;;-3.12;100.00
33454;BME280;39400;49.744;7.012;2023-02-26T08:18:10;95921.47;;;-3.15;100.00
33454;BME280;39400;49.744;7.012;2023-02-26T08:20:35;95919.25;;;-3.13;100.00
33454;BME280;39400;49.744;7.012;2023-02-26T08:23:01;95918.66;;;-3.10;100.00
33454;BME280;39400;49.744;7.012;2023-02-26T08:25:26;95918.22;;;-3.03;100.00
33454;BME280;39400;49.744;7.012;2023-02-26T08:27:52;95914.44;;;-3.25;100.00
33454;BME280;39400;49.744;7.012;2023-02-26T08:30:17;95929.03;;;-3.17;100.00
33454;BME280;39400;49.744;7.012;2023-02-26T08:32:43;95914.06;;;-3.09;100.00
33454;BME280;39400;49.744;7.012;2023-02-26T08:35:09;95923.06;;;-3.14;100.00
33454;BME280;39400;49.744;7.012;2023-02-26T08:37:34;95923.91;;;-3.27;100.00
33454;BME280;39400;49.744;7.012;2023-02-26T08:40:00;95935.63;;;-3.23;100.00
33454;BME280;39400;49.744;7.012;2023-02-26T08:42:25;95938.22;;;-3.18;100.00
33454;BME280;39400;49.744;7.012;2023-02-26T08:44:50;95935.03;;;-3.20;100.00
33454;BME280;39400;49.744;7.012;2023-02-26T08:47:16;95943.09;;;-3.20;100.00
33454;BME280;39400;49.744;7.012;2023-02-26T08:49:41;95951.75;;;-3.23;100.00
33454;BME280;39400;49.744;7.012;2023-02-26T08:52:07;95962.47;;;-3.09;100.00
33454;BME280;39400;49.744;7.012;2023-02-26T08:54:32;95963.38;;;-3.14;100.00
33454;BME280;39400;49.744;7.012;2023-02-26T08:56:58;95970.25;;;-3.08;100.00
33454;BME280;39400;49.744;7.012;2023-02-26T08:59:23;95971.94;;;-3.12;100.00
33454;BME280;39400;49.744;7.012;2023-02-26T09:01:49;95968.03;;;-3.06;100.00
33454;BME280;39400;49.744;7.012;2023-02-26T09:04:15;95981.38;;;-3.01;100.00
33454;BME280;39400;49.744;7.012;2023-02-26T09:06:40;95977.31;;;-2.90;100.00
33454;BME280;39400;49.744;7.012;2023-02-26T09:09:06;95975.75;;;-2.91;100.00
33454;BME280;39400;49.744;7.012;2023-02-26T09:11:31;95983.84;;;-2.82;100.00
33454;BME280;39400;49.744;7.012;2023-02-26T09:13:57;95971.28;;;-2.64;100.00
33454;BME280;39400;49.744;7.012;2023-02-26T09:16:23;95986.44;;;-2.46;100.00
33454;BME280;39400;49.744;7.012;2023-02-26T09:18:48;95988.38;;;-2.37;100.00
33454;BME280;39400;49.744;7.012;2023-02-26T09:21:14;95989.63;;;-2.44;100.00
33454;BME280;39400;49.744;7.012;2023-02-26T09:23:39;95983.63;;;-2.41;100.00
33454;BME280;39400;49.744;7.012;2023-02-26T09:26:04;95995.78;;;-2.43;100.00
33454;BME280;39400;49.744;7.012;2023-02-26T09:28:30;95997.13;;;-2.32;100.00
33454;BME280;39400;49.744;7.012;2023-02-26T09:30:55;95989.53;;;-2.30;100.00
33454;BME280;39400;49.744;7.012;2023-02-26T09:33:21;95991.66;;;-2.49;100.00
33454;BME280;39400;49.744;7.012;2023-02-26T09:35:48;96007.44;;;-2.25;100.00
33454;BME280;39400;49.744;7.012;2023-02-26T09:38:14;95994.28;;;-2.27;100.00
33454;BME280;39400;49.744;7.012;2023-02-26T09:40:58;96008.16;;;-2.11;100.00
33454;BME280;39400;49.744;7.012;2023-02-26T09:51:43;96020.56;;;-1.93;100.00
33454;BME280;39400;49.744;7.012;2023-02-26T09:54:17;96018.84;;;-1.88;100.00
33454;BME280;39400;49.744;7.012;2023-02-26T09:56:44;96011.75;;;-1.67;100.00
33454;BME280;39400;49.744;7.012;2023-02-26T09:59:10;96009.28;;;-1.55;100.00
33454;BME280;39400;49.744;7.012;2023-02-26T10:01:43;96013.41;;;-1.49;100.00
33454;BME280;39400;49.744;7.012;2023-02-26T10:07:22;96008.31;;;-1.59;100.00
33454;BME280;39400;49.744;7.012;2023-02-26T10:12:51;96011.63;;;-1.62;100.00
33454;BME280;39400;49.744;7.012;2023-02-26T10:15:27;96020.69;;;-1.58;100.00
33454;BME280;39400;49.744;7.012;2023-02-26T10:23:43;96037.72;;;-0.88;100.00
33454;BME280;39400;49.744;7.012;2023-02-26T10:26:18;96035.34;;;-1.07;100.00
33454;BME280;39400;49.744;7.012;2023-02-26T10:29:06;96043.31;;;-0.93;100.00
33454;BME280;39400;49.744;7.012;2023-02-26T10:32:56;96042.81;;;-0.86;100.00
33454;BME280;39400;49.744;7.012;2023-02-26T10:34:54;96046.13;;;-0.81;100.00
33454;BME280;39400;49.744;7.012;2023-02-26T10:38:22;96053.31;;;-0.76;100.00
33454;BME280;39400;49.744;7.012;2023-02-26T10:50:57;96058.72;;;-0.76;95.14
33454;BME280;39400;49.744;7.012;2023-02-26T10:53:25;96057.28;;;-0.82;95.07
33454;BME280;39400;49.744;7.012;2023-02-26T10:56:01;96057.25;;;-0.65;95.71
33454;BME280;39400;49.744;7.012;2023-02-26T10:58:29;96069.31;;;-0.54;96.03
33454;BME280;39400;49.744;7.012;2023-02-26T11:00:55;96057.56;;;-0.58;96.44
33454;BME280;39400;49.744;7.012;2023-02-26T11:03:41;96064.41;;;-0.52;97.40
33454;BME280;39400;49.744;7.012;2023-02-26T11:06:09;96056.63;;;-0.44;95.38
33454;BME280;39400;49.744;7.012;2023-02-26T11:08:42;96066.63;;;-0.54;94.97
33454;BME280;39400;49.744;7.012;2023-02-26T11:11:08;96071.06;;;-0.49;95.50
33454;BME280;39400;49.744;7.012;2023-02-26T11:13:37;96081.06;;;-0.50;94.90
33454;BME280;39400;49.744;7.012;2023-02-26T11:16:29;96073.16;;;-0.72;94.97
33454;BME280;39400;49.744;7.012;2023-02-26T11:18:58;96072.03;;;-0.45;95.56
33454;BME280;39400;49.744;7.012;2023-02-26T11:21:33;96076.94;;;-0.56;96.68
33454;BME280;39400;49.744;7.012;2023-02-26T11:24:03;96074.69;;;-0.36;97.40
33454;BME280;39400;49.744;7.012;2023-02-26T11:26:36;96045.34;;;-0.55;92.16
33454;BME280;39400;49.744;7.012;2023-02-26T11:29:04;96073.13;;;-0.37;95.58
33454;BME280;39400;49.744;7.012;2023-02-26T11:31:31;96063.59;;;-0.43;93.44
33454;BME280;39400;49.744;7.012;2023-02-26T11:34:04;96073.09;;;-0.20;95.31
33454;BME280;39400;49.744;7.012;2023-02-26T11:36:33;96066.72;;;-0.07;94.41
33454;BME280;39400;49.744;7.012;2023-02-26T11:39:08;96061.66;;;-0.17;93.51
33454;BME280;39400;49.744;7.012;2023-02-26T11:41:38;96067.00;;;0.01;95.62
33454;BME280;39400;49.744;7.012;2023-02-26T11:44:07;96062.41;;;-0.08;93.42
33454;BME280;39400;49.744;7.012;2023-02-26T11:46:51;96064.94;;;-0.11;92.63
33454;BME280;39400;49.744;7.012;2023-02-26T11:49:19;96045.38;;;0.01;92.72
33454;BME280;39400;49.744;7.012;2023-02-26T11:51:47;96046.06;;;-0.20;89.78
33454;BME280;39400;49.744;7.012;2023-02-26T11:54:26;96056.88;;;-0.20;92.50
33454;BME280;39400;49.744;7.012;2023-02-26T11:57:00;96043.03;;;-0.18;92.77
33454;BME280;39400;49.744;7.012;2023-02-26T11:59:25;96039.72;;;-0.24;91.04
33454;BME280;39400;49.744;7.012;2023-02-26T12:01:52;96051.19;;;-0.36;89.53
33454;BME280;39400;49.744;7.012;2023-02-26T12:04:20;96059.25;;;-0.18;92.15
33454;BME280;39400;49.744;7.012;2023-02-26T12:06:48;96039.53;;;-0.19;89.72
33454;BME280;39400;49.744;7.012;2023-02-26T12:09:14;96062.88;;;-0.06;91.25
33454;BME280;39400;49.744;7.012;2023-02-26T12:11:50;96060.97;;;0.04;91.15
33454;BME280;39400;49.744;7.012;2023-02-26T12:14:36;96065.75;;;-0.11;90.00
33454;BME280;39400;49.744;7.012;2023-02-26T12:26:15;96068.13;;;-0.09;89.50
33454;BME280;39400;49.744;7.012;2023-02-26T12:37:06;96068.03;;;-0.30;87.85
33454;BME280;39400;49.744;7.012;2023-02-26T12:39:56;96077.22;;;-0.14;85.31
33454;BME280;39400;49.744;7.012;2023-02-26T12:47:58;96081.06;;;0.23;84.38
33454;BME280;39400;49.744;7.012;2023-02-26T13:04:02;96112.00;;;-0.12;86.62
33454;BME280;39400;49.744;7.012;2023-02-26T13:06:53;96103.56;;;-0.11;85.91
33454;BME280;39400;49.744;7.012;2023-02-26T13:09:32;96094.06;;;-0.26;84.90
33454;BME280;39400;49.744;7.012;2023-02-26T13:12:53;96105.84;;;-0.30;84.04
33454;BME280;39400;49.744;7.012;2023-02-26T13:20:16;96102.34;;;-0.22;82.62
33454;BME280;39400;49.744;7.012;2023-02-26T13:23:16;96098.50;;;-0.12;83.35
33454;BME280;39400;49.744;7.012;2023-02-26T13:25:48;96103.88;;;-0.04;83.83
33454;BME280;39400;49.744;7.012;2023-02-26T13:30:52;96106.41;;;0.57;83.84
33454;BME280;39400;49.744;7.012;2023-02-26T13:33:23;96091.72;;;1.17;82.78
33454;BME280;39400;49.744;7.012;2023-02-26T13:35:53;96070.19;;;1.21;79.82
33454;BME280;39400;49.744;7.012;2023-02-26T13:38:27;96090.41;;;1.99;79.96
33454;BME280;39400;49.744;7.012;2023-02-26T13:41:11;96071.69;;;1.31;76.70
33454;BME280;39400;49.744;7.012;2023-02-26T13:46:38;96081.50;;;0.93;77.69
33454;BME280;39400;49.744;7.012;2023-02-26T13:51:44;96087.59;;;0.90;77.44
33454;BME280;39400;49.744;7.012;2023-02-26T14:01:52;96073.03;;;2.24;70.52
33454;BME280;39400;49.744;7.012;2023-02-26T14:07:15;96082.56;;;3.04;71.60
33454;BME280;39400;49.744;7.012;2023-02-26T14:10:01;96092.22;;;3.42;70.79
33454;BME280;39400;49.744;7.012;2023-02-26T14:12:33;96093.44;;;2.79;70.56
33454;BME280;39400;49.744;7.012;2023-02-26T14:17:40;96083.97;;;2.03;70.10
33454;BME280;39400;49.744;7.012;2023-02-26T14:20:26;96083.69;;;2.29;67.29
33454;BME280;39400;49.744;7.012;2023-02-26T14:23:09;96093.84;;;2.20;66.43
33454;BME280;39400;49.744;7.012;2023-02-26T14:31:13;96109.03;;;3.60;67.74
33454;BME280;39400;49.744;7.012;2023-02-26T14:36:15;96106.41;;;4.03;64.92
33454;BME280;39400;49.744;7.012;2023-02-26T14:38:42;96107.38;;;2.08;69.67
33454;BME280;39400;49.744;7.012;2023-02-26T14:41:18;96093.72;;;1.29;70.27
33454;BME280;39400;49.744;7.012;2023-02-26T14:44:11;96117.47;;;0.73;72.17
33454;BME280;39400;49.744;7.012;2023-02-26T14:46:38;96131.38;;;0.63;74.55
33454;BME280;39400;49.744;7.012;2023-02-26T14:49:05;96129.47;;;0.55;76.71
33454;BME280;39400;49.744;7.012;2023-02-26T14:51:58;96097.94;;;0.59;74.90
33454;BME280;39400;49.744;7.012;2023-02-26T14:54:47;96144.34;;;0.40;77.93
33454;BME280;39400;49.744;7.012;2023-02-26T15:00:32;96120.47;;;0.42;75.34
33454;BME280;39400;49.744;7.012;2023-02-26T15:25:32;96148.41;;;-0.18;77.50
33454;BME280;39400;49.744;7.012;2023-02-26T15:28:00;96155.25;;;-0.30;78.24
33454;BME280;39400;49.744;7.012;2023-02-26T15:30:26;96162.25;;;-0.29;78.11
33454;BME280;39400;49.744;7.012;2023-02-26T15:32:59;96165.75;;;-0.19;77.15
33454;BME280;39400;49.744;7.012;2023-02-26T15:35:27;96158.09;;;-0.09;77.33
33454;BME280;39400;49.744;7.012;2023-02-26T15:37:54;96149.53;;;-0.19;76.46
33454;BME280;39400;49.744;7.012;2023-02-26T15:40:20;96168.94;;;-0.26;76.81
33454;BME280;39400;49.744;7.012;2023-02-26T15:42:55;96172.25;;;-0.12;76.86
33454;BME280;39400;49.744;7.012;2023-02-26T15:45:33;96168.91;;;0.17;76.30